Admiral — WCY6529 — position and weather

sailwx.info

Track history (hours):
 
Tides and Currents Weather Stations Pressure Air Temp Water Temp Dewpoint Dewpoint Depression Visibility Wind Speed Wind Dir Waves Ship Positions

Admiral

Owner: CROWLEY MARINE SERVICES INC, SEATTLE, WA. More information available from US FCC via Universal Licensing System and Coast Guard Vessel Documentation Center.

Last reported at 2014-Oct-21 01:31 UTC. Time now 2014-Oct-21 03:56 UTC.
Position N 33°43' W 118°15'.

; draft 5.3 m.

Type: Tug. MMSI: 366755020.

Date/timePositionNaut miles runAvg speedWind from/ knotsBaromVisibWave heightAir tempDewpointWater temp
2014-Oct-21 01:31N 33°43' W 118°15'3 2.8
2014-Oct-21 00:33N 33°45' W 118°13'2 2.0
2014-Oct-20 23:33N 33°43' W 118°11'1 0.8
2014-Oct-20 22:33N 33°44' W 118°12'4 4.1
2014-Oct-20 21:33N 33°44' W 118°17'0 0.0
2014-Oct-20 20:30N 33°44' W 118°17'0 0.0
2014-Oct-20 19:33N 33°44' W 118°17'0 0.0
2014-Oct-20 18:33N 33°44' W 118°17'0 0.0
2014-Oct-20 17:33N 33°44' W 118°17'0 0.0
2014-Oct-20 16:33N 33°44' W 118°17'0 0.0
2014-Oct-20 15:32N 33°44' W 118°17'0 0.0
2014-Oct-20 14:33N 33°44' W 118°17'0 0.0
2014-Oct-20 13:31N 33°44' W 118°17'1 1.3
2014-Oct-20 12:33N 33°43' W 118°16'0 0.5
2014-Oct-20 11:31N 33°43' W 118°16'1 0.8
2014-Oct-20 10:32N 33°43' W 118°15'3 3.4
2014-Oct-20 09:33N 33°46' W 118°15'3 3.2
2014-Oct-20 08:31N 33°43' W 118°15'3 2.9
2014-Oct-20 07:33N 33°45' W 118°13'0 0.1
2014-Oct-20 06:33N 33°45' W 118°13'0 0.4
2014-Oct-20 05:33N 33°45' W 118°13'2 1.6
2014-Oct-20 04:33N 33°44' W 118°12'1 0.5
2014-Oct-20 03:34N 33°44' W 118°13'1 1.3
2014-Oct-20 02:33N 33°45' W 118°13'1 1.2
2014-Oct-20 01:33N 33°45' W 118°12'4 3.9
2014-Oct-20 00:33N 33°44' W 118°17'0 0.0
2014-Oct-19 23:33N 33°44' W 118°17'0 0.0
2014-Oct-19 22:33N 33°44' W 118°17'0 0.0
2014-Oct-19 20:28N 33°44' W 118°17'0 0.0
2014-Oct-19 19:31N 33°44' W 118°17'0 0.0
2014-Oct-19 18:33N 33°44' W 118°17'0 0.0
2014-Oct-19 17:30N 33°44' W 118°17'0 0.0
2014-Oct-19 16:33N 33°44' W 118°17'0 0.0
2014-Oct-19 15:09N 33°44' W 118°17'0 0.0
2014-Oct-19 14:32N 33°44' W 118°17'0 0.0
2014-Oct-19 13:22N 33°44' W 118°17'0 0.0
2014-Oct-19 12:33N 33°44' W 118°17'4 3.5
2014-Oct-19 11:33N 33°45' W 118°12'3 3.4
2014-Oct-19 10:33N 33°43' W 118°16'1 1.0
2014-Oct-19 09:33N 33°44' W 118°17'0 0.0
2014-Oct-19 08:33N 33°44' W 118°17'0 0.0
2014-Oct-19 07:33N 33°44' W 118°17'0 0.0
2014-Oct-19 06:33N 33°44' W 118°17'0 0.0
2014-Oct-19 05:12N 33°44' W 118°17'0 0.0
2014-Oct-19 04:33N 33°44' W 118°17'0 0.0
2014-Oct-19 03:31N 33°44' W 118°17'1 0.9
2014-Oct-19 02:34N 33°45' W 118°16'0 0.1
2014-Oct-19 01:33N 33°45' W 118°16'1 0.9
2014-Oct-19 00:33N 33°44' W 118°17'0 0.0
2014-Oct-18 23:33N 33°44' W 118°17'0 0.0
2014-Oct-18 22:33N 33°44' W 118°17'0 0.0
2014-Oct-18 21:33N 33°44' W 118°17'0 0.0
2014-Oct-18 20:33N 33°44' W 118°17'1 0.9
2014-Oct-18 19:33N 33°44' W 118°16'3 3.4
2014-Oct-18 18:33N 33°45' W 118°12'2 1.5
2014-Oct-18 17:33N 33°44' W 118°14'3 2.0
2014-Oct-18 16:14N 33°44' W 118°17'0 0.0
2014-Oct-18 15:24N 33°44' W 118°17'0 0.0
2014-Oct-18 14:31N 33°44' W 118°17'0 0.0
2014-Oct-18 13:20N 33°44' W 118°17'1 1.8
2014-Oct-18 12:33N 33°44' W 118°15'1 0.8
2014-Oct-18 11:33N 33°43' W 118°16'1 1.3
2014-Oct-18 10:32N 33°44' W 118°17'0 0.0
2014-Oct-18 09:32N 33°44' W 118°17'0 0.0
2014-Oct-18 08:33N 33°44' W 118°17'0 0.0
2014-Oct-18 06:26N 33°44' W 118°17'0 0.0
2014-Oct-18 05:19N 33°44' W 118°17'0 0.0
2014-Oct-18 03:06N 33°44' W 118°17'1 1.4
2014-Oct-18 02:33N 33°45' W 118°16'3 2.6
2014-Oct-18 01:31N 33°43' W 118°15'0 0.3
2014-Oct-18 00:33N 33°43' W 118°15'3 2.7
2014-Oct-17 23:33N 33°45' W 118°16'0 0.2
2014-Oct-17 22:33N 33°45' W 118°16'1 1.0
2014-Oct-17 21:32N 33°44' W 118°17'0 0.0
2014-Oct-17 20:32N 33°44' W 118°17'0 0.0
2014-Oct-17 19:33N 33°44' W 118°17'0 0.0
2014-Oct-17 18:33N 33°44' W 118°17'0 0.0
2014-Oct-17 17:32N 33°44' W 118°17'0 0.0
2014-Oct-17 16:33N 33°44' W 118°17'0 0.0
2014-Oct-17 15:33N 33°44' W 118°17'0 0.0
2014-Oct-17 14:33N 33°44' W 118°17'0 0.0
2014-Oct-17 13:33N 33°44' W 118°17'0 0.0
2014-Oct-17 12:32N 33°44' W 118°17'0 0.0
2014-Oct-17 11:33N 33°44' W 118°17'0 0.0
2014-Oct-17 10:31N 33°44' W 118°17'0 0.0
2014-Oct-17 09:29N 33°44' W 118°17'4 3.9
2014-Oct-17 08:33N 33°44' W 118°12'1 1.4
2014-Oct-17 07:33N 33°45' W 118°13'0 0.1
2014-Oct-17 06:33N 33°45' W 118°13'3 2.4
2014-Oct-17 05:13N 33°44' W 118°17'0 0.0
2014-Oct-17 04:18N 33°44' W 118°17'0 0.0
2014-Oct-17 03:33N 33°44' W 118°17'0 0.0
2014-Oct-17 02:28N 33°44' W 118°17'2 1.9
2014-Oct-17 01:33N 33°46' W 118°15'2 2.1
2014-Oct-17 00:31N 33°44' W 118°16'0 0.3
2014-Oct-16 23:33N 33°44' W 118°17'2 2.1
2014-Oct-16 22:33N 33°46' W 118°16'2 1.5
2014-Oct-16 21:31N 33°44' W 118°17'1 0.3
2014-Oct-16 18:33N 33°45' W 118°16'0 0.3
2014-Oct-16 17:33N 33°45' W 118°16'1 0.3
2014-Oct-16 14:33N 33°44' W 118°17'0 0.0
2014-Oct-16 13:33N 33°44' W 118°17'0 0.0
2014-Oct-16 12:33N 33°44' W 118°17'0 0.0
2014-Oct-16 11:33N 33°44' W 118°17'0 0.0
2014-Oct-16 10:33N 33°44' W 118°17'0 0.0
2014-Oct-16 09:33N 33°44' W 118°17'0 0.0
2014-Oct-16 08:33N 33°44' W 118°17'0 0.0
2014-Oct-16 07:33N 33°44' W 118°17'0 0.0
2014-Oct-16 06:33N 33°44' W 118°17'0 0.0
2014-Oct-16 05:33N 33°44' W 118°17'0 0.0
2014-Oct-16 04:33N 33°44' W 118°17'0 0.0
2014-Oct-16 03:32N 33°44' W 118°17'0 0.0
2014-Oct-16 02:12N 33°44' W 118°17'1 1.4
2014-Oct-16 01:33N 33°44' W 118°16'1 0.8
2014-Oct-16 00:32N 33°43' W 118°16'1 1.4
2014-Oct-15 23:32N 33°43' W 118°14'2 2.5
2014-Oct-15 22:33N 33°45' W 118°13'1 0.9
2014-Oct-15 21:33N 33°45' W 118°13'1 0.7
2014-Oct-15 20:33N 33°44' W 118°13'3 0.5
2014-Oct-15 13:33N 33°44' W 118°17'1 1.2
2014-Oct-15 12:32N 33°43' W 118°16'1 0.5
2014-Oct-15 11:33N 33°43' W 118°16'1 0.9
2014-Oct-15 10:33N 33°44' W 118°16'1 0.6
2014-Oct-15 09:31N 33°44' W 118°16'1 0.8
2014-Oct-15 08:33N 33°44' W 118°17'1 0.3
2014-Oct-15 06:31N 33°44' W 118°16'3 3.6
2014-Oct-15 05:33N 33°45' W 118°12'4 3.5
2014-Oct-15 04:32N 33°44' W 118°17'0 0.0
2014-Oct-15 03:33N 33°44' W 118°17'0 0.0
2014-Oct-15 02:33N 33°44' W 118°17'0 0.0
2014-Oct-15 01:33N 33°44' W 118°17'0 0.0
2014-Oct-15 00:33N 33°44' W 118°17'0 0.0
2014-Oct-14 23:32N 33°44' W 118°17'1 1.2
2014-Oct-14 22:33N 33°44' W 118°16'0 0.1
2014-Oct-14 21:32N 33°44' W 118°16'2 1.7
2014-Oct-14 20:33N 33°44' W 118°14'2 1.6
2014-Oct-14 19:34N 33°45' W 118°13'1 1.4
2014-Oct-14 18:33N 33°46' W 118°13'1 0.6
2014-Oct-14 17:33N 33°46' W 118°13'1 0.9
2014-Oct-14 16:33N 33°45' W 118°13'1 0.6
2014-Oct-14 15:34N 33°45' W 118°12'3 3.0
2014-Oct-14 14:30N 33°43' W 118°16'1 1.3
2014-Oct-14 13:33N 33°44' W 118°17'1 0.6
2014-Oct-14 12:33N 33°45' W 118°16'0 0.2
2014-Oct-14 11:33N 33°45' W 118°17'0 0.3
2014-Oct-14 10:33N 33°44' W 118°17'0 0.0
2014-Oct-14 09:32N 33°44' W 118°17'0 0.0
2014-Oct-14 08:33N 33°44' W 118°17'0 0.0
2014-Oct-14 07:31N 33°44' W 118°17'0 0.0
2014-Oct-14 06:33N 33°44' W 118°17'0 0.0
2014-Oct-14 05:33N 33°44' W 118°17'0 0.0
2014-Oct-14 04:33N 33°44' W 118°17'0 0.0
2014-Oct-14 03:29N 33°44' W 118°17'2 2.6
2014-Oct-14 02:34N 33°46' W 118°14'1 1.0
2014-Oct-14 01:33N 33°45' W 118°16'3 2.7
2014-Oct-14 00:33N 33°43' W 118°15'2 2.2
2014-Oct-13 23:33N 33°44' W 118°13'1 0.9
2014-Oct-13 22:33N 33°45' W 118°12'4 3.5
2014-Oct-13 21:33N 33°44' W 118°17'0 0.0
2014-Oct-13 20:33N 33°44' W 118°17'0 0.0
2014-Oct-13 19:33N 33°44' W 118°17'0 0.0
2014-Oct-13 18:33N 33°44' W 118°17'0 0.0
2014-Oct-13 17:33N 33°44' W 118°17'0 0.0
2014-Oct-13 16:33N 33°44' W 118°17'0 0.0
2014-Oct-13 15:33N 33°44' W 118°17'0 0.0
2014-Oct-13 14:33N 33°44' W 118°17'0 0.0
2014-Oct-13 13:33N 33°44' W 118°17'3 3.1
2014-Oct-13 12:33N 33°45' W 118°13'1 0.9
2014-Oct-13 11:34N 33°45' W 118°13'5 4.6
2014-Oct-13 10:33N 33°41' W 118°09'7 6.9
2014-Oct-13 09:32N 33°44' W 118°17'0 0.1
2014-Oct-13 08:29N 33°44' W 118°17'0 0.0
2014-Oct-13 07:33N 33°44' W 118°17'0 0.0
2014-Oct-13 06:33N 33°44' W 118°17'0 0.0
2014-Oct-13 05:33N 33°44' W 118°17'0 0.0
2014-Oct-13 04:33N 33°44' W 118°17'0 0.0
2014-Oct-13 03:33N 33°44' W 118°17'0 0.0
2014-Oct-13 02:33N 33°44' W 118°17'2 1.6
2014-Oct-13 01:33N 33°46' W 118°15'3 2.8
2014-Oct-13 00:33N 33°43' W 118°15'2 1.9
2014-Oct-12 23:33N 33°44' W 118°17'0 0.0
2014-Oct-12 22:33N 33°44' W 118°17'0 0.0
2014-Oct-12 21:33N 33°44' W 118°17'0 0.0
2014-Oct-12 20:33N 33°44' W 118°17'0 0.0
2014-Oct-12 19:33N 33°44' W 118°17'0 0.0
2014-Oct-12 18:33N 33°44' W 118°17'0 0.0
2014-Oct-12 17:33N 33°44' W 118°17'0 0.0
2014-Oct-12 16:33N 33°44' W 118°17'0 0.0
2014-Oct-12 15:33N 33°44' W 118°17'0 0.0
2014-Oct-12 14:33N 33°44' W 118°17'1 1.3
2014-Oct-12 13:33N 33°45' W 118°16'2 2.3
2014-Oct-12 12:33N 33°43' W 118°16'0 0.2
2014-Oct-12 11:30N 33°43' W 118°16'1 1.3
2014-Oct-12 10:32N 33°44' W 118°17'3 3.4
2014-Oct-12 09:33N 33°46' W 118°13'0 0.0
2014-Oct-12 08:33N 33°46' W 118°13'0 0.0
2014-Oct-12 07:33N 33°46' W 118°13'2 2.4
2014-Oct-12 06:33N 33°44' W 118°13'3 3.3
2014-Oct-12 05:33N 33°44' W 118°17'0 0.0
2014-Oct-12 04:32N 33°44' W 118°17'0 0.0
2014-Oct-12 03:32N 33°44' W 118°17'2 1.5
2014-Oct-12 02:32N 33°44' W 118°15'0 0.2
2014-Oct-12 01:32N 33°44' W 118°15'1 1.2
2014-Oct-12 00:33N 33°43' W 118°14'3 2.7
2014-Oct-11 23:33N 33°45' W 118°16'0 0.5
2014-Oct-11 22:33N 33°46' W 118°16'2 1.6
2014-Oct-11 21:33N 33°44' W 118°17'0 0.0
2014-Oct-11 20:33N 33°44' W 118°17'0 0.0
2014-Oct-11 19:33N 33°44' W 118°17'0 0.0
2014-Oct-11 18:33N 33°44' W 118°17'0 0.0
2014-Oct-11 17:33N 33°44' W 118°17'0 0.0
2014-Oct-11 16:32N 33°44' W 118°17'2 2.0
2014-Oct-11 15:30N 33°43' W 118°15'1 1.0
2014-Oct-11 14:33N 33°43' W 118°16'2 2.1
2014-Oct-11 13:34N 33°45' W 118°16'0 0.2
2014-Oct-11 12:34N 33°45' W 118°16'1 0.9
2014-Oct-11 11:27N 33°44' W 118°17'0 0.2
2014-Oct-11 10:32N 33°44' W 118°17'1 0.8
2014-Oct-11 09:31N 33°43' W 118°16'1 1.0
2014-Oct-11 08:33N 33°44' W 118°17'0 0.0
2014-Oct-11 07:33N 33°44' W 118°17'0 0.0
2014-Oct-11 06:33N 33°44' W 118°17'0 0.0
2014-Oct-11 05:32N 33°44' W 118°17'0 0.0
2014-Oct-11 04:33N 33°44' W 118°17'0 0.0
2014-Oct-11 03:32N 33°44' W 118°17'0 0.0
2014-Oct-11 02:32N 33°44' W 118°17'0 0.0
2014-Oct-11 01:33N 33°44' W 118°17'  
Track history (hours):
 
Tides and Currents Weather Stations Pressure Air Temp Water Temp Dewpoint Dewpoint Depression Visibility Wind Speed Wind Dir Waves Ship Positions

Admiral

Owner: CROWLEY MARINE SERVICES INC, SEATTLE, WA. More information available from US FCC via Universal Licensing System and Coast Guard Vessel Documentation Center.

Last reported at 2014-Oct-21 01:31 UTC. Time now 2014-Oct-21 03:56 UTC.
Position N 33°43' W 118°15'.

; draft 5.3 m.

Type: Tug. MMSI: 366755020.

Date/timePositionNaut miles runAvg speedWind from/ knotsBaromVisibWave heightAir tempDewpointWater temp
2014-Oct-21 01:31N 33°43' W 118°15'3 2.8
2014-Oct-21 00:33N 33°45' W 118°13'2 2.0
2014-Oct-20 23:33N 33°43' W 118°11'1 0.8
2014-Oct-20 22:33N 33°44' W 118°12'4 4.1
2014-Oct-20 21:33N 33°44' W 118°17'0 0.0
2014-Oct-20 20:30N 33°44' W 118°17'0 0.0
2014-Oct-20 19:33N 33°44' W 118°17'0 0.0
2014-Oct-20 18:33N 33°44' W 118°17'0 0.0
2014-Oct-20 17:33N 33°44' W 118°17'0 0.0
2014-Oct-20 16:33N 33°44' W 118°17'0 0.0
2014-Oct-20 15:32N 33°44' W 118°17'0 0.0
2014-Oct-20 14:33N 33°44' W 118°17'0 0.0
2014-Oct-20 13:31N 33°44' W 118°17'1 1.3
2014-Oct-20 12:33N 33°43' W 118°16'0 0.5
2014-Oct-20 11:31N 33°43' W 118°16'1 0.8
2014-Oct-20 10:32N 33°43' W 118°15'3 3.4
2014-Oct-20 09:33N 33°46' W 118°15'3 3.2
2014-Oct-20 08:31N 33°43' W 118°15'3 2.9
2014-Oct-20 07:33N 33°45' W 118°13'0 0.1
2014-Oct-20 06:33N 33°45' W 118°13'0 0.4
2014-Oct-20 05:33N 33°45' W 118°13'2 1.6
2014-Oct-20 04:33N 33°44' W 118°12'1 0.5
2014-Oct-20 03:34N 33°44' W 118°13'1 1.3
2014-Oct-20 02:33N 33°45' W 118°13'1 1.2
2014-Oct-20 01:33N 33°45' W 118°12'4 3.9
2014-Oct-20 00:33N 33°44' W 118°17'0 0.0
2014-Oct-19 23:33N 33°44' W 118°17'0 0.0
2014-Oct-19 22:33N 33°44' W 118°17'0 0.0
2014-Oct-19 20:28N 33°44' W 118°17'0 0.0
2014-Oct-19 19:31N 33°44' W 118°17'0 0.0
2014-Oct-19 18:33N 33°44' W 118°17'0 0.0
2014-Oct-19 17:30N 33°44' W 118°17'0 0.0
2014-Oct-19 16:33N 33°44' W 118°17'0 0.0
2014-Oct-19 15:09N 33°44' W 118°17'0 0.0
2014-Oct-19 14:32N 33°44' W 118°17'0 0.0
2014-Oct-19 13:22N 33°44' W 118°17'0 0.0
2014-Oct-19 12:33N 33°44' W 118°17'4 3.5
2014-Oct-19 11:33N 33°45' W 118°12'3 3.4
2014-Oct-19 10:33N 33°43' W 118°16'1 1.0
2014-Oct-19 09:33N 33°44' W 118°17'0 0.0
2014-Oct-19 08:33N 33°44' W 118°17'0 0.0
2014-Oct-19 07:33N 33°44' W 118°17'0 0.0
2014-Oct-19 06:33N 33°44' W 118°17'0 0.0
2014-Oct-19 05:12N 33°44' W 118°17'0 0.0
2014-Oct-19 04:33N 33°44' W 118°17'0 0.0
2014-Oct-19 03:31N 33°44' W 118°17'1 0.9
2014-Oct-19 02:34N 33°45' W 118°16'0 0.1
2014-Oct-19 01:33N 33°45' W 118°16'1 0.9
2014-Oct-19 00:33N 33°44' W 118°17'0 0.0
2014-Oct-18 23:33N 33°44' W 118°17'0 0.0
2014-Oct-18 22:33N 33°44' W 118°17'0 0.0
2014-Oct-18 21:33N 33°44' W 118°17'0 0.0
2014-Oct-18 20:33N 33°44' W 118°17'1 0.9
2014-Oct-18 19:33N 33°44' W 118°16'3 3.4
2014-Oct-18 18:33N 33°45' W 118°12'2 1.5
2014-Oct-18 17:33N 33°44' W 118°14'3 2.0
2014-Oct-18 16:14N 33°44' W 118°17'0 0.0
2014-Oct-18 15:24N 33°44' W 118°17'0 0.0
2014-Oct-18 14:31N 33°44' W 118°17'0 0.0
2014-Oct-18 13:20N 33°44' W 118°17'1 1.8
2014-Oct-18 12:33N 33°44' W 118°15'1 0.8
2014-Oct-18 11:33N 33°43' W 118°16'1 1.3
2014-Oct-18 10:32N 33°44' W 118°17'0 0.0
2014-Oct-18 09:32N 33°44' W 118°17'0 0.0
2014-Oct-18 08:33N 33°44' W 118°17'0 0.0
2014-Oct-18 06:26N 33°44' W 118°17'0 0.0
2014-Oct-18 05:19N 33°44' W 118°17'0 0.0
2014-Oct-18 03:06N 33°44' W 118°17'1 1.4
2014-Oct-18 02:33N 33°45' W 118°16'3 2.6
2014-Oct-18 01:31N 33°43' W 118°15'0 0.3
2014-Oct-18 00:33N 33°43' W 118°15'3 2.7
2014-Oct-17 23:33N 33°45' W 118°16'0 0.2
2014-Oct-17 22:33N 33°45' W 118°16'1 1.0
2014-Oct-17 21:32N 33°44' W 118°17'0 0.0
2014-Oct-17 20:32N 33°44' W 118°17'0 0.0
2014-Oct-17 19:33N 33°44' W 118°17'0 0.0
2014-Oct-17 18:33N 33°44' W 118°17'0 0.0
2014-Oct-17 17:32N 33°44' W 118°17'0 0.0
2014-Oct-17 16:33N 33°44' W 118°17'0 0.0
2014-Oct-17 15:33N 33°44' W 118°17'0 0.0
2014-Oct-17 14:33N 33°44' W 118°17'0 0.0
2014-Oct-17 13:33N 33°44' W 118°17'0 0.0
2014-Oct-17 12:32N 33°44' W 118°17'0 0.0
2014-Oct-17 11:33N 33°44' W 118°17'0 0.0
2014-Oct-17 10:31N 33°44' W 118°17'0 0.0
2014-Oct-17 09:29N 33°44' W 118°17'4 3.9
2014-Oct-17 08:33N 33°44' W 118°12'1 1.4
2014-Oct-17 07:33N 33°45' W 118°13'0 0.1
2014-Oct-17 06:33N 33°45' W 118°13'3 2.4
2014-Oct-17 05:13N 33°44' W 118°17'0 0.0
2014-Oct-17 04:18N 33°44' W 118°17'0 0.0
2014-Oct-17 03:33N 33°44' W 118°17'0 0.0
2014-Oct-17 02:28N 33°44' W 118°17'2 1.9
2014-Oct-17 01:33N 33°46' W 118°15'2 2.1
2014-Oct-17 00:31N 33°44' W 118°16'0 0.3
2014-Oct-16 23:33N 33°44' W 118°17'2 2.1
2014-Oct-16 22:33N 33°46' W 118°16'2 1.5
2014-Oct-16 21:31N 33°44' W 118°17'1 0.3
2014-Oct-16 18:33N 33°45' W 118°16'0 0.3
2014-Oct-16 17:33N 33°45' W 118°16'1 0.3
2014-Oct-16 14:33N 33°44' W 118°17'0 0.0
2014-Oct-16 13:33N 33°44' W 118°17'0 0.0
2014-Oct-16 12:33N 33°44' W 118°17'0 0.0
2014-Oct-16 11:33N 33°44' W 118°17'0 0.0
2014-Oct-16 10:33N 33°44' W 118°17'0 0.0
2014-Oct-16 09:33N 33°44' W 118°17'0 0.0
2014-Oct-16 08:33N 33°44' W 118°17'0 0.0
2014-Oct-16 07:33N 33°44' W 118°17'0 0.0
2014-Oct-16 06:33N 33°44' W 118°17'0 0.0
2014-Oct-16 05:33N 33°44' W 118°17'0 0.0
2014-Oct-16 04:33N 33°44' W 118°17'0 0.0
2014-Oct-16 03:32N 33°44' W 118°17'0 0.0
2014-Oct-16 02:12N 33°44' W 118°17'1 1.4
2014-Oct-16 01:33N 33°44' W 118°16'1 0.8
2014-Oct-16 00:32N 33°43' W 118°16'1 1.4
2014-Oct-15 23:32N 33°43' W 118°14'2 2.5
2014-Oct-15 22:33N 33°45' W 118°13'1 0.9
2014-Oct-15 21:33N 33°45' W 118°13'1 0.7
2014-Oct-15 20:33N 33°44' W 118°13'3 0.5
2014-Oct-15 13:33N 33°44' W 118°17'1 1.2
2014-Oct-15 12:32N 33°43' W 118°16'1 0.5
2014-Oct-15 11:33N 33°43' W 118°16'1 0.9
2014-Oct-15 10:33N 33°44' W 118°16'1 0.6
2014-Oct-15 09:31N 33°44' W 118°16'1 0.8
2014-Oct-15 08:33N 33°44' W 118°17'1 0.3
2014-Oct-15 06:31N 33°44' W 118°16'3 3.6
2014-Oct-15 05:33N 33°45' W 118°12'4 3.5
2014-Oct-15 04:32N 33°44' W 118°17'0 0.0
2014-Oct-15 03:33N 33°44' W 118°17'0 0.0
2014-Oct-15 02:33N 33°44' W 118°17'0 0.0
2014-Oct-15 01:33N 33°44' W 118°17'0 0.0
2014-Oct-15 00:33N 33°44' W 118°17'0 0.0
2014-Oct-14 23:32N 33°44' W 118°17'1 1.2
2014-Oct-14 22:33N 33°44' W 118°16'0 0.1
2014-Oct-14 21:32N 33°44' W 118°16'2 1.7
2014-Oct-14 20:33N 33°44' W 118°14'2 1.6
2014-Oct-14 19:34N 33°45' W 118°13'1 1.4
2014-Oct-14 18:33N 33°46' W 118°13'1 0.6
2014-Oct-14 17:33N 33°46' W 118°13'1 0.9
2014-Oct-14 16:33N 33°45' W 118°13'1 0.6
2014-Oct-14 15:34N 33°45' W 118°12'3 3.0
2014-Oct-14 14:30N 33°43' W 118°16'1 1.3
2014-Oct-14 13:33N 33°44' W 118°17'1 0.6
2014-Oct-14 12:33N 33°45' W 118°16'0 0.2
2014-Oct-14 11:33N 33°45' W 118°17'0 0.3
2014-Oct-14 10:33N 33°44' W 118°17'0 0.0
2014-Oct-14 09:32N 33°44' W 118°17'0 0.0
2014-Oct-14 08:33N 33°44' W 118°17'0 0.0
2014-Oct-14 07:31N 33°44' W 118°17'0 0.0
2014-Oct-14 06:33N 33°44' W 118°17'0 0.0
2014-Oct-14 05:33N 33°44' W 118°17'0 0.0
2014-Oct-14 04:33N 33°44' W 118°17'0 0.0
2014-Oct-14 03:29N 33°44' W 118°17'2 2.6
2014-Oct-14 02:34N 33°46' W 118°14'1 1.0
2014-Oct-14 01:33N 33°45' W 118°16'3 2.7
2014-Oct-14 00:33N 33°43' W 118°15'2 2.2
2014-Oct-13 23:33N 33°44' W 118°13'1 0.9
2014-Oct-13 22:33N 33°45' W 118°12'4 3.5
2014-Oct-13 21:33N 33°44' W 118°17'0 0.0
2014-Oct-13 20:33N 33°44' W 118°17'0 0.0
2014-Oct-13 19:33N 33°44' W 118°17'0 0.0
2014-Oct-13 18:33N 33°44' W 118°17'0 0.0
2014-Oct-13 17:33N 33°44' W 118°17'0 0.0
2014-Oct-13 16:33N 33°44' W 118°17'0 0.0
2014-Oct-13 15:33N 33°44' W 118°17'0 0.0
2014-Oct-13 14:33N 33°44' W 118°17'0 0.0
2014-Oct-13 13:33N 33°44' W 118°17'3 3.1
2014-Oct-13 12:33N 33°45' W 118°13'1 0.9
2014-Oct-13 11:34N 33°45' W 118°13'5 4.6
2014-Oct-13 10:33N 33°41' W 118°09'7 6.9
2014-Oct-13 09:32N 33°44' W 118°17'0 0.1
2014-Oct-13 08:29N 33°44' W 118°17'0 0.0
2014-Oct-13 07:33N 33°44' W 118°17'0 0.0
2014-Oct-13 06:33N 33°44' W 118°17'0 0.0
2014-Oct-13 05:33N 33°44' W 118°17'0 0.0
2014-Oct-13 04:33N 33°44' W 118°17'0 0.0
2014-Oct-13 03:33N 33°44' W 118°17'0 0.0
2014-Oct-13 02:33N 33°44' W 118°17'2 1.6
2014-Oct-13 01:33N 33°46' W 118°15'3 2.8
2014-Oct-13 00:33N 33°43' W 118°15'2 1.9
2014-Oct-12 23:33N 33°44' W 118°17'0 0.0
2014-Oct-12 22:33N 33°44' W 118°17'0 0.0
2014-Oct-12 21:33N 33°44' W 118°17'0 0.0
2014-Oct-12 20:33N 33°44' W 118°17'0 0.0
2014-Oct-12 19:33N 33°44' W 118°17'0 0.0
2014-Oct-12 18:33N 33°44' W 118°17'0 0.0
2014-Oct-12 17:33N 33°44' W 118°17'0 0.0
2014-Oct-12 16:33N 33°44' W 118°17'0 0.0
2014-Oct-12 15:33N 33°44' W 118°17'0 0.0
2014-Oct-12 14:33N 33°44' W 118°17'1 1.3
2014-Oct-12 13:33N 33°45' W 118°16'2 2.3
2014-Oct-12 12:33N 33°43' W 118°16'0 0.2
2014-Oct-12 11:30N 33°43' W 118°16'1 1.3
2014-Oct-12 10:32N 33°44' W 118°17'3 3.4
2014-Oct-12 09:33N 33°46' W 118°13'0 0.0
2014-Oct-12 08:33N 33°46' W 118°13'0 0.0
2014-Oct-12 07:33N 33°46' W 118°13'2 2.4
2014-Oct-12 06:33N 33°44' W 118°13'3 3.3
2014-Oct-12 05:33N 33°44' W 118°17'0 0.0
2014-Oct-12 04:32N 33°44' W 118°17'0 0.0
2014-Oct-12 03:32N 33°44' W 118°17'2 1.5
2014-Oct-12 02:32N 33°44' W 118°15'0 0.2
2014-Oct-12 01:32N 33°44' W 118°15'1 1.2
2014-Oct-12 00:33N 33°43' W 118°14'3 2.7
2014-Oct-11 23:33N 33°45' W 118°16'0 0.5
2014-Oct-11 22:33N 33°46' W 118°16'2 1.6
2014-Oct-11 21:33N 33°44' W 118°17'0 0.0
2014-Oct-11 20:33N 33°44' W 118°17'0 0.0
2014-Oct-11 19:33N 33°44' W 118°17'0 0.0
2014-Oct-11 18:33N 33°44' W 118°17'0 0.0
2014-Oct-11 17:33N 33°44' W 118°17'0 0.0
2014-Oct-11 16:32N 33°44' W 118°17'2 2.0
2014-Oct-11 15:30N 33°43' W 118°15'1 1.0
2014-Oct-11 14:33N 33°43' W 118°16'2 2.1
2014-Oct-11 13:34N 33°45' W 118°16'0 0.2
2014-Oct-11 12:34N 33°45' W 118°16'1 0.9
2014-Oct-11 11:27N 33°44' W 118°17'0 0.2
2014-Oct-11 10:32N 33°44' W 118°17'1 0.8
2014-Oct-11 09:31N 33°43' W 118°16'1 1.0
2014-Oct-11 08:33N 33°44' W 118°17'0 0.0
2014-Oct-11 07:33N 33°44' W 118°17'0 0.0
2014-Oct-11 06:33N 33°44' W 118°17'0 0.0
2014-Oct-11 05:32N 33°44' W 118°17'0 0.0
2014-Oct-11 04:33N 33°44' W 118°17'0 0.0
2014-Oct-11 03:32N 33°44' W 118°17'0 0.0
2014-Oct-11 02:32N 33°44' W 118°17'0 0.0
2014-Oct-11 01:33N 33°44' W 118°17'  

Dump ship's entire track history